sensor_id;sensor_type;location;lat;lon;timestamp;temperature;humidity
23291;DHT22;11814;44.686;10.842;2024-03-02T00:00:36;12.10;99.90
23291;DHT22;11814;44.686;10.842;2024-03-02T00:03:02;12.10;99.90
23291;DHT22;11814;44.686;10.842;2024-03-02T00:05:28;12.10;99.90
23291;DHT22;11814;44.686;10.842;2024-03-02T00:07:57;12.20;99.90
23291;DHT22;11814;44.686;10.842;2024-03-02T00:10:37;12.10;99.90
23291;DHT22;11814;44.686;10.842;2024-03-02T00:13:05;12.10;99.90
23291;DHT22;11814;44.686;10.842;2024-03-02T00:15:47;12.10;99.90
23291;DHT22;11814;44.686;10.842;2024-03-02T00:18:16;12.10;99.90
23291;DHT22;11814;44.686;10.842;2024-03-02T00:20:43;12.00;99.90
23291;DHT22;11814;44.686;10.842;2024-03-02T00:23:10;12.00;99.90
23291;DHT22;11814;44.686;10.842;2024-03-02T00:25:40;12.00;99.90
23291;DHT22;11814;44.686;10.842;2024-03-02T00:28:20;12.00;99.90
23291;DHT22;11814;44.686;10.842;2024-03-02T00:33:36;12.00;99.90
23291;DHT22;11814;44.686;10.842;2024-03-02T00:36:03;12.00;99.90
23291;DHT22;11814;44.686;10.842;2024-03-02T00:38:30;12.00;99.90
23291;DHT22;11814;44.686;10.842;2024-03-02T00:41:02;12.00;99.90
23291;DHT22;11814;44.686;10.842;2024-03-02T00:43:58;12.00;99.90
23291;DHT22;11814;44.686;10.842;2024-03-02T00:46:24;12.00;99.90
23291;DHT22;11814;44.686;10.842;2024-03-02T00:48:57;12.00;99.90
23291;DHT22;11814;44.686;10.842;2024-03-02T00:51:28;12.00;99.90
23291;DHT22;11814;44.686;10.842;2024-03-02T00:53:57;12.00;99.90
23291;DHT22;11814;44.686;10.842;2024-03-02T00:56:24;12.00;99.90
23291;DHT22;11814;44.686;10.842;2024-03-02T00:58:50;12.00;99.90
23291;DHT22;11814;44.686;10.842;2024-03-02T01:01:16;12.00;99.90
23291;DHT22;11814;44.686;10.842;2024-03-02T01:03:42;12.00;99.90
23291;DHT22;11814;44.686;10.842;2024-03-02T01:06:08;12.00;99.90
23291;DHT22;11814;44.686;10.842;2024-03-02T01:08:35;12.00;99.90
23291;DHT22;11814;44.686;10.842;2024-03-02T01:11:01;12.00;99.90
23291;DHT22;11814;44.686;10.842;2024-03-02T01:13:26;12.00;99.90
23291;DHT22;11814;44.686;10.842;2024-03-02T01:15:52;12.10;99.90
23291;DHT22;11814;44.686;10.842;2024-03-02T01:18:18;12.00;99.90
23291;DHT22;11814;44.686;10.842;2024-03-02T01:20:44;12.00;99.90
23291;DHT22;11814;44.686;10.842;2024-03-02T01:23:10;12.10;99.90
23291;DHT22;11814;44.686;10.842;2024-03-02T01:25:35;12.10;99.90
23291;DHT22;11814;44.686;10.842;2024-03-02T01:28:01;12.10;99.90
23291;DHT22;11814;44.686;10.842;2024-03-02T01:30:27;12.00;99.90
23291;DHT22;11814;44.686;10.842;2024-03-02T01:32:52;12.10;99.90
23291;DHT22;11814;44.686;10.842;2024-03-02T01:35:18;12.10;99.90
23291;DHT22;11814;44.686;10.842;2024-03-02T01:37:43;12.10;99.90
23291;DHT22;11814;44.686;10.842;2024-03-02T01:40:10;12.10;99.90
23291;DHT22;11814;44.686;10.842;2024-03-02T01:42:39;12.00;99.90
23291;DHT22;11814;44.686;10.842;2024-03-02T01:45:06;12.00;99.90
23291;DHT22;11814;44.686;10.842;2024-03-02T01:47:31;12.00;99.90
23291;DHT22;11814;44.686;10.842;2024-03-02T01:49:58;11.90;99.90
23291;DHT22;11814;44.686;10.842;2024-03-02T01:52:23;11.90;99.90
23291;DHT22;11814;44.686;10.842;2024-03-02T01:54:49;11.90;99.90
23291;DHT22;11814;44.686;10.842;2024-03-02T01:57:15;11.90;99.90
23291;DHT22;11814;44.686;10.842;2024-03-02T01:59:41;12.00;99.90
23291;DHT22;11814;44.686;10.842;2024-03-02T02:02:06;12.00;99.90
23291;DHT22;11814;44.686;10.842;2024-03-02T02:04:33;11.90;99.90
23291;DHT22;11814;44.686;10.842;2024-03-02T02:06:59;11.90;99.90
23291;DHT22;11814;44.686;10.842;2024-03-02T02:09:25;11.90;99.90
23291;DHT22;11814;44.686;10.842;2024-03-02T02:11:51;12.00;99.90
23291;DHT22;11814;44.686;10.842;2024-03-02T02:14:16;11.90;99.90
23291;DHT22;11814;44.686;10.842;2024-03-02T02:16:42;11.90;99.90
23291;DHT22;11814;44.686;10.842;2024-03-02T02:19:08;11.90;99.90
23291;DHT22;11814;44.686;10.842;2024-03-02T02:21:34;11.90;99.90
23291;DHT22;11814;44.686;10.842;2024-03-02T02:24:00;11.80;99.90
23291;DHT22;11814;44.686;10.842;2024-03-02T02:26:28;11.80;99.90
23291;DHT22;11814;44.686;10.842;2024-03-02T02:28:54;11.90;99.90
23291;DHT22;11814;44.686;10.842;2024-03-02T02:31:20;11.80;99.90
23291;DHT22;11814;44.686;10.842;2024-03-02T02:33:45;11.80;99.90
23291;DHT22;11814;44.686;10.842;2024-03-02T02:36:11;11.80;99.90
23291;DHT22;11814;44.686;10.842;2024-03-02T02:38:40;11.80;99.90
23291;DHT22;11814;44.686;10.842;2024-03-02T02:41:06;11.80;99.90
23291;DHT22;11814;44.686;10.842;2024-03-02T02:43:32;11.80;99.90
23291;DHT22;11814;44.686;10.842;2024-03-02T02:45:58;11.90;99.90
23291;DHT22;11814;44.686;10.842;2024-03-02T02:48:23;11.90;99.90
23291;DHT22;11814;44.686;10.842;2024-03-02T02:50:49;11.90;99.90
23291;DHT22;11814;44.686;10.842;2024-03-02T02:53:14;11.90;99.90
23291;DHT22;11814;44.686;10.842;2024-03-02T02:55:40;11.90;99.90
23291;DHT22;11814;44.686;10.842;2024-03-02T02:58:09;11.90;99.90
23291;DHT22;11814;44.686;10.842;2024-03-02T03:00:35;11.90;99.90
23291;DHT22;11814;44.686;10.842;2024-03-02T03:03:01;11.90;99.90
23291;DHT22;11814;44.686;10.842;2024-03-02T03:05:27;11.90;99.90
23291;DHT22;11814;44.686;10.842;2024-03-02T03:07:53;11.90;99.90
23291;DHT22;11814;44.686;10.842;2024-03-02T03:10:19;11.90;99.90
23291;DHT22;11814;44.686;10.842;2024-03-02T03:12:47;11.90;99.90
23291;DHT22;11814;44.686;10.842;2024-03-02T03:15:13;11.90;99.90
23291;DHT22;11814;44.686;10.842;2024-03-02T03:17:39;11.90;99.90
23291;DHT22;11814;44.686;10.842;2024-03-02T03:20:06;11.90;99.90
23291;DHT22;11814;44.686;10.842;2024-03-02T03:22:35;11.90;99.90
23291;DHT22;11814;44.686;10.842;2024-03-02T03:25:01;11.80;99.90
23291;DHT22;11814;44.686;10.842;2024-03-02T03:27:27;11.80;99.90
23291;DHT22;11814;44.686;10.842;2024-03-02T03:29:52;12.00;99.90
23291;DHT22;11814;44.686;10.842;2024-03-02T03:32:19;11.90;99.90
23291;DHT22;11814;44.686;10.842;2024-03-02T03:34:45;11.90;99.90
23291;DHT22;11814;44.686;10.842;2024-03-02T03:37:11;11.90;99.90
23291;DHT22;11814;44.686;10.842;2024-03-02T03:39:37;11.90;99.90
23291;DHT22;11814;44.686;10.842;2024-03-02T03:42:03;11.90;99.90
23291;DHT22;11814;44.686;10.842;2024-03-02T03:44:29;11.90;99.90
23291;DHT22;11814;44.686;10.842;2024-03-02T03:46:55;11.90;99.90
23291;DHT22;11814;44.686;10.842;2024-03-02T03:49:20;11.90;99.90
23291;DHT22;11814;44.686;10.842;2024-03-02T03:51:46;11.90;99.90
23291;DHT22;11814;44.686;10.842;2024-03-02T03:54:11;11.90;99.90
23291;DHT22;11814;44.686;10.842;2024-03-02T03:56:37;11.90;99.90
23291;DHT22;11814;44.686;10.842;2024-03-02T03:59:03;11.90;99.90
23291;DHT22;11814;44.686;10.842;2024-03-02T04:01:30;11.90;99.90
23291;DHT22;11814;44.686;10.842;2024-03-02T04:03:57;11.90;99.90
23291;DHT22;11814;44.686;10.842;2024-03-02T04:06:23;11.80;99.90
23291;DHT22;11814;44.686;10.842;2024-03-02T04:08:48;11.80;99.90
23291;DHT22;11814;44.686;10.842;2024-03-02T04:11:14;11.80;99.90
23291;DHT22;11814;44.686;10.842;2024-03-02T04:13:39;11.80;99.90
23291;DHT22;11814;44.686;10.842;2024-03-02T04:16:05;11.80;99.90
23291;DHT22;11814;44.686;10.842;2024-03-02T04:18:31;11.80;99.90
23291;DHT22;11814;44.686;10.842;2024-03-02T04:20:58;11.80;99.90
23291;DHT22;11814;44.686;10.842;2024-03-02T04:23:25;11.80;99.90
23291;DHT22;11814;44.686;10.842;2024-03-02T04:25:50;11.60;99.90
23291;DHT22;11814;44.686;10.842;2024-03-02T04:28:16;11.70;99.90
23291;DHT22;11814;44.686;10.842;2024-03-02T04:30:42;11.80;99.90
23291;DHT22;11814;44.686;10.842;2024-03-02T04:33:07;11.70;99.90
23291;DHT22;11814;44.686;10.842;2024-03-02T04:35:38;11.80;99.90
23291;DHT22;11814;44.686;10.842;2024-03-02T04:38:04;11.70;99.90
23291;DHT22;11814;44.686;10.842;2024-03-02T04:40:29;11.70;99.90
23291;DHT22;11814;44.686;10.842;2024-03-02T04:42:55;11.70;99.90
23291;DHT22;11814;44.686;10.842;2024-03-02T04:45:21;11.70;99.90
23291;DHT22;11814;44.686;10.842;2024-03-02T04:47:46;11.80;99.90
23291;DHT22;11814;44.686;10.842;2024-03-02T04:50:12;11.70;99.90
23291;DHT22;11814;44.686;10.842;2024-03-02T04:52:37;11.70;99.90
23291;DHT22;11814;44.686;10.842;2024-03-02T04:55:03;11.70;99.90
23291;DHT22;11814;44.686;10.842;2024-03-02T04:57:42;11.70;99.90
23291;DHT22;11814;44.686;10.842;2024-03-02T05:00:08;11.70;99.90
23291;DHT22;11814;44.686;10.842;2024-03-02T05:02:34;11.70;99.90
23291;DHT22;11814;44.686;10.842;2024-03-02T05:05:03;11.60;99.90
23291;DHT22;11814;44.686;10.842;2024-03-02T05:07:28;11.70;99.90
23291;DHT22;11814;44.686;10.842;2024-03-02T05:09:54;11.60;99.90
23291;DHT22;11814;44.686;10.842;2024-03-02T05:12:20;11.60;99.90
23291;DHT22;11814;44.686;10.842;2024-03-02T05:15:06;11.70;99.90
23291;DHT22;11814;44.686;10.842;2024-03-02T05:17:32;11.60;99.90
23291;DHT22;11814;44.686;10.842;2024-03-02T05:19:58;11.60;99.90
23291;DHT22;11814;44.686;10.842;2024-03-02T05:22:24;11.60;99.90
23291;DHT22;11814;44.686;10.842;2024-03-02T05:24:49;11.50;99.90
23291;DHT22;11814;44.686;10.842;2024-03-02T05:27:15;11.50;99.90
23291;DHT22;11814;44.686;10.842;2024-03-02T05:29:41;11.50;99.90
23291;DHT22;11814;44.686;10.842;2024-03-02T05:32:06;11.60;99.90
23291;DHT22;11814;44.686;10.842;2024-03-02T05:34:32;11.60;99.90
23291;DHT22;11814;44.686;10.842;2024-03-02T05:37:00;11.50;99.90
23291;DHT22;11814;44.686;10.842;2024-03-02T05:39:26;11.40;99.90
23291;DHT22;11814;44.686;10.842;2024-03-02T05:41:52;11.50;99.90
23291;DHT22;11814;44.686;10.842;2024-03-02T05:44:17;11.40;99.90
23291;DHT22;11814;44.686;10.842;2024-03-02T05:46:44;11.50;99.90
23291;DHT22;11814;44.686;10.842;2024-03-02T05:49:10;11.50;99.90
23291;DHT22;11814;44.686;10.842;2024-03-02T05:51:35;11.60;99.90
23291;DHT22;11814;44.686;10.842;2024-03-02T05:54:01;11.40;99.90
23291;DHT22;11814;44.686;10.842;2024-03-02T05:56:27;11.50;99.90
23291;DHT22;11814;44.686;10.842;2024-03-02T05:58:53;11.50;99.90
23291;DHT22;11814;44.686;10.842;2024-03-02T06:01:37;11.50;99.90
23291;DHT22;11814;44.686;10.842;2024-03-02T06:04:02;11.50;99.90
23291;DHT22;11814;44.686;10.842;2024-03-02T06:06:28;11.50;99.90
23291;DHT22;11814;44.686;10.842;2024-03-02T06:08:54;11.50;99.90
23291;DHT22;11814;44.686;10.842;2024-03-02T06:11:19;11.50;99.90
23291;DHT22;11814;44.686;10.842;2024-03-02T06:13:45;11.50;99.90
23291;DHT22;11814;44.686;10.842;2024-03-02T06:16:11;11.50;99.90
23291;DHT22;11814;44.686;10.842;2024-03-02T06:18:37;11.50;99.90
23291;DHT22;11814;44.686;10.842;2024-03-02T06:21:03;11.50;99.90
23291;DHT22;11814;44.686;10.842;2024-03-02T06:23:28;11.50;99.90
23291;DHT22;11814;44.686;10.842;2024-03-02T06:25:54;11.50;99.90
23291;DHT22;11814;44.686;10.842;2024-03-02T06:28:20;11.50;99.90
23291;DHT22;11814;44.686;10.842;2024-03-02T06:30:46;11.60;99.90
23291;DHT22;11814;44.686;10.842;2024-03-02T06:33:11;11.50;99.90
23291;DHT22;11814;44.686;10.842;2024-03-02T06:35:37;11.50;99.90
23291;DHT22;11814;44.686;10.842;2024-03-02T06:38:03;11.50;99.90
23291;DHT22;11814;44.686;10.842;2024-03-02T06:40:29;11.50;99.90
23291;DHT22;11814;44.686;10.842;2024-03-02T06:42:54;11.40;99.90
23291;DHT22;11814;44.686;10.842;2024-03-02T06:45:20;11.50;99.90
23291;DHT22;11814;44.686;10.842;2024-03-02T06:47:46;11.50;99.90
23291;DHT22;11814;44.686;10.842;2024-03-02T06:50:11;11.50;99.90
23291;DHT22;11814;44.686;10.842;2024-03-02T06:52:37;11.60;99.90
23291;DHT22;11814;44.686;10.842;2024-03-02T06:55:03;11.60;99.90
23291;DHT22;11814;44.686;10.842;2024-03-02T06:57:29;11.60;99.90
23291;DHT22;11814;44.686;10.842;2024-03-02T06:59:55;11.60;99.90
23291;DHT22;11814;44.686;10.842;2024-03-02T07:02:24;11.60;99.90
23291;DHT22;11814;44.686;10.842;2024-03-02T07:04:51;11.60;99.90
23291;DHT22;11814;44.686;10.842;2024-03-02T07:07:16;11.60;99.90
23291;DHT22;11814;44.686;10.842;2024-03-02T07:09:42;11.70;99.90
23291;DHT22;11814;44.686;10.842;2024-03-02T07:12:08;11.60;99.90
23291;DHT22;11814;44.686;10.842;2024-03-02T07:14:34;11.60;99.90
23291;DHT22;11814;44.686;10.842;2024-03-02T07:17:18;11.70;99.90
23291;DHT22;11814;44.686;10.842;2024-03-02T07:19:44;11.60;99.90
23291;DHT22;11814;44.686;10.842;2024-03-02T07:22:09;11.60;99.90
23291;DHT22;11814;44.686;10.842;2024-03-02T07:24:42;11.60;99.90
23291;DHT22;11814;44.686;10.842;2024-03-02T07:27:12;11.60;99.90
23291;DHT22;11814;44.686;10.842;2024-03-02T07:29:38;11.60;99.90
23291;DHT22;11814;44.686;10.842;2024-03-02T07:32:05;11.60;99.90
23291;DHT22;11814;44.686;10.842;2024-03-02T07:34:31;11.60;99.90
23291;DHT22;11814;44.686;10.842;2024-03-02T07:36:56;11.60;99.90
23291;DHT22;11814;44.686;10.842;2024-03-02T07:39:22;11.60;99.90
23291;DHT22;11814;44.686;10.842;2024-03-02T07:41:48;11.70;99.90
23291;DHT22;11814;44.686;10.842;2024-03-02T07:44:14;11.70;99.90
23291;DHT22;11814;44.686;10.842;2024-03-02T07:46:44;11.70;99.90
23291;DHT22;11814;44.686;10.842;2024-03-02T07:49:12;11.70;99.90
23291;DHT22;11814;44.686;10.842;2024-03-02T07:51:39;11.80;99.90
23291;DHT22;11814;44.686;10.842;2024-03-02T07:54:05;11.90;99.90
23291;DHT22;11814;44.686;10.842;2024-03-02T07:56:31;11.90;99.90
23291;DHT22;11814;44.686;10.842;2024-03-02T07:58:57;11.90;99.90
23291;DHT22;11814;44.686;10.842;2024-03-02T08:01:30;12.00;99.90
23291;DHT22;11814;44.686;10.842;2024-03-02T08:04:00;12.00;99.90
23291;DHT22;11814;44.686;10.842;2024-03-02T08:06:27;12.00;99.90
23291;DHT22;11814;44.686;10.842;2024-03-02T08:09:00;12.00;99.90
23291;DHT22;11814;44.686;10.842;2024-03-02T08:11:26;12.00;99.90
23291;DHT22;11814;44.686;10.842;2024-03-02T08:13:56;12.00;99.90
23291;DHT22;11814;44.686;10.842;2024-03-02T08:16:23;12.00;99.90
23291;DHT22;11814;44.686;10.842;2024-03-02T08:18:52;12.10;99.90
23291;DHT22;11814;44.686;10.842;2024-03-02T08:21:18;12.10;99.90
23291;DHT22;11814;44.686;10.842;2024-03-02T08:23:47;12.20;99.90
23291;DHT22;11814;44.686;10.842;2024-03-02T08:26:16;12.20;99.90
23291;DHT22;11814;44.686;10.842;2024-03-02T08:28:41;12.30;99.90
23291;DHT22;11814;44.686;10.842;2024-03-02T08:31:07;12.30;99.90
23291;DHT22;11814;44.686;10.842;2024-03-02T08:33:33;12.30;99.90
23291;DHT22;11814;44.686;10.842;2024-03-02T08:35:59;12.30;99.90
23291;DHT22;11814;44.686;10.842;2024-03-02T08:38:26;12.30;99.90
23291;DHT22;11814;44.686;10.842;2024-03-02T08:40:51;12.40;99.90
23291;DHT22;11814;44.686;10.842;2024-03-02T08:43:17;12.40;99.90
23291;DHT22;11814;44.686;10.842;2024-03-02T08:45:43;12.40;99.90
23291;DHT22;11814;44.686;10.842;2024-03-02T08:48:10;12.50;99.90
23291;DHT22;11814;44.686;10.842;2024-03-02T08:50:36;12.50;99.90
23291;DHT22;11814;44.686;10.842;2024-03-02T08:53:04;12.60;99.90
23291;DHT22;11814;44.686;10.842;2024-03-02T08:55:30;12.60;99.90
23291;DHT22;11814;44.686;10.842;2024-03-02T08:57:56;12.70;99.90
23291;DHT22;11814;44.686;10.842;2024-03-02T09:00:23;12.70;99.90
23291;DHT22;11814;44.686;10.842;2024-03-02T09:02:52;12.70;99.90
23291;DHT22;11814;44.686;10.842;2024-03-02T09:05:18;12.70;99.90
23291;DHT22;11814;44.686;10.842;2024-03-02T09:07:45;12.80;99.90
23291;DHT22;11814;44.686;10.842;2024-03-02T09:10:10;12.70;99.90
23291;DHT22;11814;44.686;10.842;2024-03-02T09:12:37;12.80;99.90
23291;DHT22;11814;44.686;10.842;2024-03-02T09:15:04;12.70;99.90
23291;DHT22;11814;44.686;10.842;2024-03-02T09:17:31;12.80;99.90
23291;DHT22;11814;44.686;10.842;2024-03-02T09:19:56;12.80;99.90
23291;DHT22;11814;44.686;10.842;2024-03-02T09:22:22;12.80;99.90
23291;DHT22;11814;44.686;10.842;2024-03-02T09:24:48;12.80;99.90
23291;DHT22;11814;44.686;10.842;2024-03-02T09:27:14;12.90;99.90
23291;DHT22;11814;44.686;10.842;2024-03-02T09:29:40;12.90;99.90
23291;DHT22;11814;44.686;10.842;2024-03-02T09:32:06;12.90;99.90
23291;DHT22;11814;44.686;10.842;2024-03-02T09:34:32;12.90;99.90
23291;DHT22;11814;44.686;10.842;2024-03-02T09:36:58;12.90;99.90
23291;DHT22;11814;44.686;10.842;2024-03-02T09:39:24;12.90;99.90
23291;DHT22;11814;44.686;10.842;2024-03-02T09:41:53;12.90;99.90
23291;DHT22;11814;44.686;10.842;2024-03-02T09:44:19;12.90;99.90
23291;DHT22;11814;44.686;10.842;2024-03-02T09:46:49;12.90;99.90
23291;DHT22;11814;44.686;10.842;2024-03-02T09:49:15;12.90;99.90
23291;DHT22;11814;44.686;10.842;2024-03-02T09:51:40;13.00;99.90
23291;DHT22;11814;44.686;10.842;2024-03-02T09:54:11;13.10;99.90
23291;DHT22;11814;44.686;10.842;2024-03-02T09:56:37;13.20;99.90
23291;DHT22;11814;44.686;10.842;2024-03-02T09:59:04;13.30;99.90
23291;DHT22;11814;44.686;10.842;2024-03-02T10:01:30;13.40;99.90
23291;DHT22;11814;44.686;10.842;2024-03-02T10:03:59;13.50;99.90
23291;DHT22;11814;44.686;10.842;2024-03-02T10:06:26;13.70;99.90
23291;DHT22;11814;44.686;10.842;2024-03-02T10:08:53;13.90;99.90
23291;DHT22;11814;44.686;10.842;2024-03-02T10:11:37;14.00;99.90
23291;DHT22;11814;44.686;10.842;2024-03-02T10:14:08;14.10;99.90
23291;DHT22;11814;44.686;10.842;2024-03-02T10:16:38;14.30;99.90
23291;DHT22;11814;44.686;10.842;2024-03-02T10:19:19;14.30;99.90
23291;DHT22;11814;44.686;10.842;2024-03-02T10:21:54;14.30;99.90
23291;DHT22;11814;44.686;10.842;2024-03-02T10:24:22;14.30;99.90
23291;DHT22;11814;44.686;10.842;2024-03-02T10:26:48;14.30;99.90
23291;DHT22;11814;44.686;10.842;2024-03-02T10:29:14;14.20;99.90
23291;DHT22;11814;44.686;10.842;2024-03-02T10:31:41;14.20;99.90
23291;DHT22;11814;44.686;10.842;2024-03-02T10:34:08;14.30;99.90
23291;DHT22;11814;44.686;10.842;2024-03-02T10:36:35;14.60;99.90
23291;DHT22;11814;44.686;10.842;2024-03-02T10:39:05;15.60;99.90
23291;DHT22;11814;44.686;10.842;2024-03-02T10:41:35;16.80;99.90
23291;DHT22;11814;44.686;10.842;2024-03-02T10:44:05;18.20;99.90
23291;DHT22;11814;44.686;10.842;2024-03-02T10:46:33;19.10;99.90
23291;DHT22;11814;44.686;10.842;2024-03-02T10:49:00;19.20;99.90
23291;DHT22;11814;44.686;10.842;2024-03-02T10:51:27;19.30;99.90
23291;DHT22;11814;44.686;10.842;2024-03-02T10:53:55;19.60;99.90
23291;DHT22;11814;44.686;10.842;2024-03-02T10:56:31;19.20;99.90
23291;DHT22;11814;44.686;10.842;2024-03-02T11:01:32;18.40;99.80
23291;DHT22;11814;44.686;10.842;2024-03-02T11:03:59;18.10;99.90
23291;DHT22;11814;44.686;10.842;2024-03-02T11:06:28;17.90;99.90
23291;DHT22;11814;44.686;10.842;2024-03-02T11:08:55;17.70;99.90
23291;DHT22;11814;44.686;10.842;2024-03-02T11:11:30;17.40;99.90
23291;DHT22;11814;44.686;10.842;2024-03-02T11:14:01;17.20;99.90
23291;DHT22;11814;44.686;10.842;2024-03-02T11:16:34;17.00;99.90
23291;DHT22;11814;44.686;10.842;2024-03-02T11:19:08;16.80;99.90
23291;DHT22;11814;44.686;10.842;2024-03-02T11:21:35;16.90;99.90
23291;DHT22;11814;44.686;10.842;2024-03-02T11:26:47;17.10;99.90
23291;DHT22;11814;44.686;10.842;2024-03-02T11:32:05;16.80;99.90
23291;DHT22;11814;44.686;10.842;2024-03-02T11:34:36;16.70;99.90
23291;DHT22;11814;44.686;10.842;2024-03-02T11:37:05;16.50;99.90
23291;DHT22;11814;44.686;10.842;2024-03-02T11:39:31;16.20;99.90
23291;DHT22;11814;44.686;10.842;2024-03-02T11:41:57;15.90;99.90
23291;DHT22;11814;44.686;10.842;2024-03-02T11:44:29;15.80;99.90
23291;DHT22;11814;44.686;10.842;2024-03-02T11:46:59;15.70;99.90
23291;DHT22;11814;44.686;10.842;2024-03-02T11:49:42;15.70;99.90
23291;DHT22;11814;44.686;10.842;2024-03-02T11:52:13;15.70;99.90
23291;DHT22;11814;44.686;10.842;2024-03-02T11:54:40;15.60;99.90
23291;DHT22;11814;44.686;10.842;2024-03-02T11:57:15;15.60;99.90
23291;DHT22;11814;44.686;10.842;2024-03-02T11:59:41;15.70;99.90
23291;DHT22;11814;44.686;10.842;2024-03-02T12:02:12;15.70;99.90
23291;DHT22;11814;44.686;10.842;2024-03-02T12:04:38;15.80;99.90
23291;DHT22;11814;44.686;10.842;2024-03-02T12:07:04;15.90;99.90
23291;DHT22;11814;44.686;10.842;2024-03-02T12:09:30;15.90;99.90
23291;DHT22;11814;44.686;10.842;2024-03-02T12:14:30;16.00;99.90
23291;DHT22;11814;44.686;10.842;2024-03-02T12:16:55;16.10;99.90
23291;DHT22;11814;44.686;10.842;2024-03-02T12:19:21;16.10;99.90
23291;DHT22;11814;44.686;10.842;2024-03-02T12:21:47;16.20;99.90
23291;DHT22;11814;44.686;10.842;2024-03-02T12:24:13;16.40;99.90
23291;DHT22;11814;44.686;10.842;2024-03-02T12:26:39;16.40;99.90
23291;DHT22;11814;44.686;10.842;2024-03-02T12:29:05;16.40;99.90
23291;DHT22;11814;44.686;10.842;2024-03-02T12:31:31;16.40;99.90
23291;DHT22;11814;44.686;10.842;2024-03-02T12:33:58;16.30;99.90
23291;DHT22;11814;44.686;10.842;2024-03-02T12:36:24;16.20;99.90
23291;DHT22;11814;44.686;10.842;2024-03-02T12:38:53;16.20;99.90
23291;DHT22;11814;44.686;10.842;2024-03-02T12:41:18;16.20;99.90
23291;DHT22;11814;44.686;10.842;2024-03-02T12:44:13;16.10;99.90
23291;DHT22;11814;44.686;10.842;2024-03-02T12:46:39;16.10;99.90
23291;DHT22;11814;44.686;10.842;2024-03-02T12:49:11;16.00;99.90
23291;DHT22;11814;44.686;10.842;2024-03-02T12:51:41;16.00;99.90
23291;DHT22;11814;44.686;10.842;2024-03-02T12:54:09;16.00;99.90
23291;DHT22;11814;44.686;10.842;2024-03-02T12:56:36;15.80;99.90
23291;DHT22;11814;44.686;10.842;2024-03-02T12:59:03;15.70;99.90
23291;DHT22;11814;44.686;10.842;2024-03-02T13:01:29;15.60;99.90
23291;DHT22;11814;44.686;10.842;2024-03-02T13:03:55;15.50;99.90
23291;DHT22;11814;44.686;10.842;2024-03-02T13:06:22;15.40;99.90
23291;DHT22;11814;44.686;10.842;2024-03-02T13:08:48;15.30;99.90
23291;DHT22;11814;44.686;10.842;2024-03-02T13:11:16;15.30;99.90
23291;DHT22;11814;44.686;10.842;2024-03-02T13:13:42;15.20;99.90
23291;DHT22;11814;44.686;10.842;2024-03-02T13:16:12;15.00;99.90
23291;DHT22;11814;44.686;10.842;2024-03-02T13:18:42;15.00;99.90
23291;DHT22;11814;44.686;10.842;2024-03-02T13:21:08;14.90;99.90
23291;DHT22;11814;44.686;10.842;2024-03-02T13:23:34;14.90;99.90
23291;DHT22;11814;44.686;10.842;2024-03-02T13:26:01;14.90;99.90
23291;DHT22;11814;44.686;10.842;2024-03-02T13:28:27;14.90;99.90
23291;DHT22;11814;44.686;10.842;2024-03-02T13:30:52;15.00;99.90
23291;DHT22;11814;44.686;10.842;2024-03-02T13:33:18;14.90;99.90
23291;DHT22;11814;44.686;10.842;2024-03-02T13:35:53;14.90;99.90
23291;DHT22;11814;44.686;10.842;2024-03-02T13:38:20;14.90;99.90
23291;DHT22;11814;44.686;10.842;2024-03-02T13:40:46;14.90;99.90
23291;DHT22;11814;44.686;10.842;2024-03-02T13:43:12;14.90;99.90
23291;DHT22;11814;44.686;10.842;2024-03-02T13:45:39;14.90;99.90
23291;DHT22;11814;44.686;10.842;2024-03-02T13:48:05;15.20;99.90
23291;DHT22;11814;44.686;10.842;2024-03-02T13:50:31;15.40;99.90
23291;DHT22;11814;44.686;10.842;2024-03-02T13:52:57;15.40;99.90
23291;DHT22;11814;44.686;10.842;2024-03-02T13:55:23;15.70;99.90
23291;DHT22;11814;44.686;10.842;2024-03-02T13:57:48;15.90;99.90
23291;DHT22;11814;44.686;10.842;2024-03-02T14:00:16;16.20;99.90
23291;DHT22;11814;44.686;10.842;2024-03-02T14:02:43;16.40;99.90
23291;DHT22;11814;44.686;10.842;2024-03-02T14:05:09;16.30;99.90
23291;DHT22;11814;44.686;10.842;2024-03-02T14:07:39;16.40;99.90
23291;DHT22;11814;44.686;10.842;2024-03-02T14:10:05;16.40;99.90
23291;DHT22;11814;44.686;10.842;2024-03-02T14:12:31;16.50;99.90
23291;DHT22;11814;44.686;10.842;2024-03-02T14:14:57;16.40;99.90
23291;DHT22;11814;44.686;10.842;2024-03-02T14:17:28;16.40;99.90
23291;DHT22;11814;44.686;10.842;2024-03-02T14:19:54;16.50;99.90
23291;DHT22;11814;44.686;10.842;2024-03-02T14:22:22;16.60;99.90
23291;DHT22;11814;44.686;10.842;2024-03-02T14:24:48;16.60;99.90
23291;DHT22;11814;44.686;10.842;2024-03-02T14:27:15;16.50;99.90
23291;DHT22;11814;44.686;10.842;2024-03-02T14:29:44;16.50;99.90
23291;DHT22;11814;44.686;10.842;2024-03-02T14:32:10;16.50;99.90
23291;DHT22;11814;44.686;10.842;2024-03-02T14:34:36;16.40;99.90
23291;DHT22;11814;44.686;10.842;2024-03-02T14:37:02;16.30;99.90
23291;DHT22;11814;44.686;10.842;2024-03-02T14:39:28;16.30;99.90
23291;DHT22;11814;44.686;10.842;2024-03-02T14:41:55;16.30;99.90
23291;DHT22;11814;44.686;10.842;2024-03-02T14:44:21;16.40;99.90
23291;DHT22;11814;44.686;10.842;2024-03-02T14:46:48;16.50;99.90
23291;DHT22;11814;44.686;10.842;2024-03-02T14:49:13;16.40;99.90
23291;DHT22;11814;44.686;10.842;2024-03-02T14:51:39;16.40;99.90
23291;DHT22;11814;44.686;10.842;2024-03-02T14:54:05;16.50;99.90
23291;DHT22;11814;44.686;10.842;2024-03-02T14:56:31;16.50;99.90
23291;DHT22;11814;44.686;10.842;2024-03-02T14:58:56;16.50;99.90
23291;DHT22;11814;44.686;10.842;2024-03-02T15:01:22;16.40;99.90
23291;DHT22;11814;44.686;10.842;2024-03-02T15:03:52;16.20;99.90
23291;DHT22;11814;44.686;10.842;2024-03-02T15:06:18;16.20;99.90
23291;DHT22;11814;44.686;10.842;2024-03-02T15:08:44;16.10;99.90
23291;DHT22;11814;44.686;10.842;2024-03-02T15:11:12;16.00;99.90
23291;DHT22;11814;44.686;10.842;2024-03-02T15:13:38;16.00;99.90
23291;DHT22;11814;44.686;10.842;2024-03-02T15:16:04;15.80;99.90
23291;DHT22;11814;44.686;10.842;2024-03-02T15:18:29;15.80;99.90
23291;DHT22;11814;44.686;10.842;2024-03-02T15:20:56;15.70;99.90
23291;DHT22;11814;44.686;10.842;2024-03-02T15:23:21;15.60;99.90
23291;DHT22;11814;44.686;10.842;2024-03-02T15:25:47;15.50;99.90
23291;DHT22;11814;44.686;10.842;2024-03-02T15:28:13;15.50;99.90